Rechercher aéroport 
image banner adimage banner adimage banner ad
image banner ad

2CL6 - St John's Rgnl Medical Center

Situé à Oxnard, United States

ICAO - 2CL6, IATA -

Données fournies par Airmate  

Information générale

Coordonnées: N34°12'60" W119°9'26"
Élévation : 76 feet MSL.
Variation magnétique : 14° East
Voir autres Aéroports à California

Données opérationnelles

Special qualification required
Heure actuelle UTC:
Heure actuelle locale:
Météo à : KOXR - Oxnard ( 5 km )
METAR: KOXR 262151Z 25008KT 10SM CLR 19/16 A2995 RMK AO2 SLP141 T01940156
TAF: KOXR 261950Z 2620/2718 29009KT P6SM -RA SCT010 BKN035 OVC090 FM262200 26008KT P6SM VCSH BKN120 FM270200 26006KT P6SM OVC100 FM270600 VRB03KT P6SM OVC007
Voir NOTAMs / SUP AIP / TFR affectant cet aéroport [VIEW]
Fréquences de communication: [VIEW]

Pistes:

Coordonnées de l'aéroport

Adresse: Oxnard United States

Vue satellite de 2CL6